DTTR

El Borma Airport

El Borma, Tunisia
METAR DTTR 191700Z AUTO 30005KT NCD 14/00 Q1016
Observed Flight Rules
Jan-19 @ 17:00 UTC (12 minutes ago)
Wind Clouds
300° at 5 knots
  • Clear skies
Temperatures Readings
Current 14°C / 57°F
Dewpoint 0°C / 32°F
Humidity 39%
Altimeter 30" Hg
Pressure 1015.92 hPa
Elevation 259
METAR DTTR 191700Z AUTO 30005KT NCD 14/00 Q1016
Observed Flight Rules
Jan-19 @ 17:00 UTC
(12 minutes ago)
Wind
300° at 5 knots
Clouds
  • Clear skies
Temperature Dewpoint
14°C / 57°F 0°C / 32°F
Humidity Altimeter Pressure
39% 30" Hg 1015.92 hPa